Time;durP1;ratioP1;P1;durP2;ratioP2;P2;SDS_P1;SDS_P2;PMS_P1;PMS_P2;Temp;Humidity;BMP_temperature;BMP_pressure;BME280_temperature;BME280_humidity;BME280_pressure;Samples;Min_cycle;Max_cycle;Signal;HPM_P1;HPM_P2
2022/04/14 00:01:28;;;;;;;3.85;1.80;;;11.20;99.90;;;;;;6248660;22;20032;-81
2022/04/14 00:03:53;;;;;;;3.97;2.00;;;11.30;99.90;;;;;;6249114;22;20019;-81
2022/04/14 00:06:19;;;;;;;4.30;2.05;;;11.40;99.90;;;;;;6248901;22;20457;-81
2022/04/14 00:08:45;;;;;;;4.28;2.50;;;11.30;99.90;;;;;;6276801;22;20016;-81
2022/04/14 00:11:10;;;;;;;8.85;2.47;;;11.30;99.90;;;;;;6249258;22;20450;-81
2022/04/14 00:13:36;;;;;;;4.00;1.63;;;11.30;99.90;;;;;;6276504;22;20449;-82
2022/04/14 00:16:01;;;;;;;6.32;2.60;;;11.20;99.90;;;;;;6276490;22;20019;-81
2022/04/14 00:18:27;;;;;;;3.65;2.03;;;11.20;99.90;;;;;;6276741;22;20024;-81
2022/04/14 00:20:53;;;;;;;8.07;4.35;;;11.20;99.90;;;;;;6276911;22;20434;-83
2022/04/14 00:23:18;;;;;;;6.60;2.40;;;11.40;99.90;;;;;;6249723;22;20019;-82
2022/04/14 00:25:44;;;;;;;5.80;2.05;;;11.10;99.90;;;;;;6278223;22;20059;-84
2022/04/14 00:28:09;;;;;;;3.58;2.17;;;11.10;99.90;;;;;;6278621;22;20101;-82
2022/04/14 00:30:35;;;;;;;3.30;1.73;;;11.00;99.90;;;;;;6278967;22;20058;-81
2022/04/14 00:33:01;;;;;;;4.80;2.70;;;11.50;99.90;;;;;;6252640;22;20058;-81
2022/04/14 00:35:27;;;;;;;3.55;2.25;;;11.00;99.90;;;;;;6280943;22;20024;-81
2022/04/14 00:37:53;;;;;;;3.83;1.50;;;11.10;99.90;;;;;;6252641;22;20016;-85
2022/04/14 00:40:18;;;;;;;4.28;1.70;;;10.90;99.90;;;;;;6279364;22;20024;-82
2022/04/14 00:42:46;;;;;;;3.97;2.15;;;10.90;99.90;;;;;;6279524;22;20117;-84
2022/04/14 00:45:13;;;;;;;4.72;2.05;;;10.90;99.90;;;;;;6279130;22;20028;-82
2022/04/14 00:47:39;;;;;;;4.55;2.20;;;10.80;99.90;;;;;;6280521;22;20012;-81
2022/04/14 00:50:05;;;;;;;5.63;2.85;;;10.80;99.90;;;;;;6252682;22;20434;-83
2022/04/14 00:52:31;;;;;;;5.80;2.78;;;10.80;99.90;;;;;;6280105;22;20453;-82
2022/04/14 00:54:57;;;;;;;6.05;2.55;;;10.70;99.90;;;;;;6278103;22;20026;-84
2022/04/14 00:57:23;;;;;;;4.28;2.33;;;10.70;99.90;;;;;;6279234;22;20020;-82
2022/04/14 00:59:48;;;;;;;6.07;2.30;;;10.70;99.90;;;;;;6279353;22;20015;-81
2022/04/14 01:02:18;;;;;;;4.22;2.22;;;10.60;99.90;;;;;;6278847;22;20019;-83
2022/04/14 01:04:44;;;;;;;6.70;3.10;;;10.70;99.90;;;;;;6251741;22;20026;-84
2022/04/14 01:07:10;;;;;;;4.97;2.60;;;10.50;99.90;;;;;;6279455;22;20020;-83
2022/04/14 01:09:36;;;;;;;5.25;2.40;;;10.70;99.90;;;;;;6278911;22;20532;-85
2022/04/14 01:12:03;;;;;;;4.63;2.40;;;10.40;99.90;;;;;;6278398;22;20016;-81
2022/04/14 01:14:33;;;;;;;4.82;2.80;;;10.40;99.90;;;;;;6278545;22;20349;-87
2022/04/14 01:17:01;;;;;;;5.65;3.28;;;10.40;99.90;;;;;;6278777;22;20019;-85
2022/04/14 01:19:28;;;;;;;5.32;2.53;;;10.40;99.90;;;;;;6278414;22;20509;-81
2022/04/14 01:22:23;;;;;;;5.88;2.65;;;10.30;99.90;;;;;;6278540;22;20017;-82
2022/04/14 01:24:50;;;;;;;6.20;3.38;;;10.20;99.90;;;;;;6278576;22;20078;-82
2022/04/14 01:27:15;;;;;;;4.60;2.72;;;10.20;99.90;;;;;;6278963;22;20350;-81
2022/04/14 01:29:41;;;;;;;5.03;2.60;;;10.30;99.90;;;;;;6278362;22;20027;-81
2022/04/14 01:32:07;;;;;;;5.07;2.53;;;10.50;99.90;;;;;;6251402;22;20030;-83
2022/04/14 01:34:33;;;;;;;5.65;2.97;;;10.10;99.90;;;;;;6278710;22;20019;-81
2022/04/14 01:37:00;;;;;;;4.63;1.83;;;10.00;99.90;;;;;;6278009;22;20441;-81
2022/04/14 01:39:27;;;;;;;5.50;2.55;;;10.50;99.90;;;;;;6278549;22;20016;-84
2022/04/14 01:41:53;;;;;;;6.15;2.53;;;10.00;99.90;;;;;;6250377;22;20165;-81
2022/04/14 01:44:19;;;;;;;5.70;2.70;;;10.20;99.90;;;;;;6278350;22;20023;-82
2022/04/14 01:46:44;;;;;;;5.95;2.90;;;9.90;99.90;;;;;;6251061;22;20031;-82
2022/04/14 01:49:11;;;;;;;8.18;3.75;;;9.90;99.90;;;;;;6278090;22;20048;-81
2022/04/14 01:51:42;;;;;;;4.43;2.38;;;9.90;99.90;;;;;;6278201;22;20042;-83
2022/04/14 01:54:08;;;;;;;5.22;3.05;;;10.30;99.90;;;;;;6250795;22;20059;-84
2022/04/14 01:56:33;;;;;;;4.22;2.53;;;9.80;99.90;;;;;;6250618;22;20027;-83
2022/04/14 01:59:00;;;;;;;12.18;6.30;;;9.80;99.90;;;;;;6277886;22;20020;-83
2022/04/14 02:01:25;;;;;;;6.32;3.90;;;9.80;99.90;;;;;;6252778;22;20018;-83
2022/04/14 02:03:51;;;;;;;7.72;3.50;;;9.80;99.90;;;;;;6252075;22;20420;-84
2022/04/14 02:06:18;;;;;;;5.85;3.03;;;9.80;99.90;;;;;;6250466;22;20086;-82
2022/04/14 02:08:43;;;;;;;5.93;3.10;;;9.70;99.90;;;;;;6250661;22;20488;-84
2022/04/14 02:11:12;;;;;;;6.53;3.53;;;9.70;99.90;;;;;;6277167;22;20016;-86
2022/04/14 02:13:39;;;;;;;4.72;2.95;;;10.00;99.90;;;;;;6277749;22;20345;-83
2022/04/14 02:16:05;;;;;;;6.65;3.13;;;10.10;99.90;;;;;;6277773;22;20476;-81
2022/04/14 02:18:31;;;;;;;6.93;3.83;;;9.70;99.90;;;;;;6277309;22;20023;-82
2022/04/14 02:20:56;;;;;;;7.82;4.15;;;9.70;99.90;;;;;;6277526;22;20016;-83
2022/04/14 02:23:23;;;;;;;7.90;3.78;;;10.10;99.90;;;;;;6277901;22;20446;-81
2022/04/14 02:25:48;;;;;;;6.95;3.70;;;9.50;99.90;;;;;;6278221;22;20019;-82
2022/04/14 02:28:14;;;;;;;6.50;3.60;;;9.50;99.90;;;;;;6277670;22;20445;-81
2022/04/14 02:30:40;;;;;;;5.53;3.35;;;9.50;99.90;;;;;;6276508;22;20437;-81
2022/04/14 02:33:06;;;;;;;5.28;3.30;;;9.40;99.90;;;;;;6249904;22;20020;-81
2022/04/14 02:35:31;;;;;;;6.38;3.47;;;9.40;99.90;;;;;;6277155;22;20028;-81
2022/04/14 02:37:57;;;;;;;6.40;3.33;;;9.40;99.90;;;;;;6277200;22;20315;-84
2022/04/14 02:40:26;;;;;;;7.03;3.22;;;9.40;99.90;;;;;;6276969;22;20081;-81
2022/04/14 02:42:54;;;;;;;7.15;3.90;;;9.40;99.90;;;;;;6276945;22;20048;-81
2022/04/14 02:45:23;;;;;;;9.05;5.10;;;9.30;99.90;;;;;;6277325;22;20105;-81
2022/04/14 02:47:49;;;;;;;6.65;3.97;;;9.30;99.90;;;;;;6277180;22;20409;-82
2022/04/14 02:50:15;;;;;;;8.52;4.45;;;9.50;99.90;;;;;;6249738;22;20020;-81
2022/04/14 02:52:47;;;;;;;6.75;3.75;;;9.20;99.90;;;;;;6277387;22;20016;-81
2022/04/14 02:55:13;;;;;;;6.85;4.25;;;9.70;99.90;;;;;;6249600;22;20016;-81
2022/04/14 02:57:39;;;;;;;8.18;4.13;;;9.20;99.90;;;;;;6277136;22;20024;-81
2022/04/14 03:00:09;;;;;;;9.65;4.65;;;9.30;99.90;;;;;;6276928;22;20015;-81
2022/04/14 03:02:35;;;;;;;10.52;5.32;;;9.20;99.90;;;;;;6224530;22;20824;-81
2022/04/14 03:05:02;;;;;;;12.70;5.28;;;9.20;99.90;;;;;;6249345;22;20023;-81
2022/04/14 03:07:28;;;;;;;11.30;5.35;;;9.10;99.90;;;;;;6276739;22;20027;-82
2022/04/14 03:09:54;;;;;;;9.70;5.05;;;9.10;99.90;;;;;;6249278;22;20027;-82
2022/04/14 03:12:20;;;;;;;7.63;4.60;;;9.30;99.90;;;;;;6249360;22;20028;-81
2022/04/14 03:14:50;;;;;;;9.32;4.57;;;9.00;99.90;;;;;;6224429;22;20059;-82
2022/04/14 03:17:15;;;;;;;9.18;4.35;;;9.00;99.90;;;;;;6277205;22;20062;-81
2022/04/14 03:19:41;;;;;;;8.93;4.75;;;9.40;99.90;;;;;;6276748;22;20012;-82
2022/04/14 03:22:07;;;;;;;8.52;4.90;;;9.10;99.90;;;;;;6249433;22;20024;-81
2022/04/14 03:24:33;;;;;;;9.63;4.45;;;8.90;99.90;;;;;;6276526;22;20019;-83
2022/04/14 03:26:58;;;;;;;8.95;4.15;;;8.80;99.90;;;;;;6276921;22;20333;-82
2022/04/14 03:29:24;;;;;;;9.00;4.63;;;8.80;99.90;;;;;;6249106;22;20020;-82
2022/04/14 03:31:50;;;;;;;7.28;4.03;;;8.80;99.90;;;;;;6249823;22;20073;-81
2022/04/14 03:34:15;;;;;;;9.73;4.72;;;9.30;99.90;;;;;;6276131;22;20104;-81
2022/04/14 03:36:41;;;;;;;8.35;4.72;;;8.80;99.90;;;;;;6276956;22;20023;-81
2022/04/14 03:39:07;;;;;;;9.85;5.05;;;8.70;99.90;;;;;;6276749;22;20461;-82
2022/04/14 03:41:32;;;;;;;8.13;4.40;;;8.70;99.90;;;;;;6275841;22;20099;-82
2022/04/14 03:43:58;;;;;;;10.50;4.75;;;8.60;99.90;;;;;;6249265;22;20024;-82
2022/04/14 03:46:24;;;;;;;8.73;4.30;;;8.70;99.90;;;;;;6249409;22;20026;-82
2022/04/14 03:48:49;;;;;;;13.65;5.43;;;9.30;99.90;;;;;;6277013;22;20026;-81
2022/04/14 03:51:15;;;;;;;8.80;4.57;;;8.50;99.90;;;;;;6276779;22;20023;-82
2022/04/14 03:53:42;;;;;;;11.10;6.03;;;8.50;99.90;;;;;;6276136;22;20022;-81
2022/04/14 03:56:08;;;;;;;10.95;5.32;;;8.50;99.90;;;;;;6223254;22;20327;-82
2022/04/14 03:59:26;;;;;;;9.60;5.18;;;9.00;99.90;;;;;;6210074;22;20380;-85
2022/04/14 04:01:52;;;;;;;10.18;5.43;;;8.40;99.90;;;;;;6184705;23;20053;-84
2022/04/14 04:04:18;;;;;;;9.07;4.57;;;8.90;99.90;;;;;;6184843;23;20028;-84
2022/04/14 04:06:45;;;;;;;11.35;5.75;;;8.80;99.90;;;;;;6184426;23;20034;-84
2022/04/14 04:09:12;;;;;;;12.80;5.32;;;8.40;99.90;;;;;;6184667;23;20028;-83
2022/04/14 04:11:38;;;;;;;12.57;5.65;;;8.40;99.90;;;;;;6184979;23;20028;-84
2022/04/14 04:14:04;;;;;;;10.73;6.07;;;9.60;99.90;;;;;;6184406;23;20358;-84
2022/04/14 04:16:29;;;;;;;7.43;4.45;;;9.10;99.90;;;;;;6184580;23;20014;-84
2022/04/14 04:18:55;;;;;;;11.18;4.80;;;9.00;99.90;;;;;;6184689;23;20100;-83
2022/04/14 04:21:21;;;;;;;9.70;5.63;;;9.40;99.90;;;;;;6184899;23;20028;-84
2022/04/14 04:23:46;;;;;;;10.73;6.90;;;8.80;99.90;;;;;;6184702;23;20417;-83
2022/04/14 04:26:12;;;;;;;12.68;6.93;;;9.40;99.90;;;;;;6184711;23;20025;-84
2022/04/14 04:28:38;;;;;;;11.35;6.53;;;8.10;99.90;;;;;;6158207;23;20075;-84
2022/04/14 04:31:03;;;;;;;11.73;6.70;;;8.90;99.90;;;;;;6183676;23;20031;-84
2022/04/14 04:33:29;;;;;;;10.68;5.57;;;8.20;99.90;;;;;;6184650;23;20309;-83
2022/04/14 04:35:55;;;;;;;10.18;5.65;;;8.20;99.90;;;;;;6184373;23;20021;-83
2022/04/14 04:38:20;;;;;;;11.05;6.13;;;9.10;99.90;;;;;;6184230;23;20118;-84
2022/04/14 04:40:46;;;;;;;11.32;6.00;;;8.20;99.90;;;;;;6157953;23;20017;-84
2022/04/14 04:43:15;;;;;;;9.10;5.55;;;8.50;99.90;;;;;;6184711;23;20073;-83
2022/04/14 04:45:41;;;;;;;10.25;5.72;;;8.20;99.90;;;;;;6158372;23;20025;-84
2022/04/14 04:48:07;;;;;;;9.70;4.90;;;9.20;99.90;;;;;;6184695;23;20451;-84
2022/04/14 04:50:33;;;;;;;11.90;6.60;;;8.10;99.90;;;;;;6184651;23;20091;-83
2022/04/14 04:52:59;;;;;;;11.10;6.03;;;8.70;99.90;;;;;;6157805;23;20443;-84
2022/04/14 04:55:25;;;;;;;9.65;5.85;;;8.10;99.90;;;;;;6157904;23;20080;-84
2022/04/14 04:57:51;;;;;;;9.27;5.70;;;8.10;99.90;;;;;;6184765;23;20013;-84
2022/04/14 05:00:16;;;;;;;12.48;6.35;;;8.50;99.90;;;;;;6183313;23;20013;-84
2022/04/14 05:02:43;;;;;;;10.57;5.63;;;8.10;99.90;;;;;;6182451;23;20025;-84
2022/04/14 05:05:08;;;;;;;13.68;7.13;;;8.10;99.90;;;;;;6184331;23;20079;-84
2022/04/14 05:07:34;;;;;;;9.02;6.03;;;8.10;99.90;;;;;;6157986;23;20028;-84
2022/04/14 05:10:00;;;;;;;16.65;10.18;;;9.10;99.90;;;;;;6184215;23;20025;-84
2022/04/14 05:12:25;;;;;;;12.48;7.28;;;8.10;99.90;;;;;;6186267;23;20096;-84
2022/04/14 05:14:51;;;;;;;11.38;6.13;;;8.10;99.90;;;;;;6159675;23;20021;-84
2022/04/14 05:17:18;;;;;;;11.07;6.05;;;8.70;99.90;;;;;;6134633;23;20024;-83
2022/04/14 05:19:44;;;;;;;10.45;5.75;;;8.30;99.90;;;;;;6186106;23;20036;-84
2022/04/14 05:22:09;;;;;;;14.18;6.85;;;8.90;99.90;;;;;;6159881;23;20021;-84
2022/04/14 05:24:35;;;;;;;9.35;5.13;;;8.60;99.90;;;;;;6184434;23;20025;-84
2022/04/14 05:27:01;;;;;;;9.88;4.63;;;8.10;99.90;;;;;;6135092;23;20028;-84
2022/04/14 05:29:27;;;;;;;7.18;4.63;;;9.40;99.90;;;;;;6159328;23;20029;-84
2022/04/14 05:31:52;;;;;;;8.45;5.03;;;8.30;99.90;;;;;;6159359;23;20054;-85
2022/04/14 05:34:18;;;;;;;10.15;5.38;;;8.10;99.90;;;;;;6185995;23;20024;-84
2022/04/14 05:36:44;;;;;;;11.32;5.85;;;8.10;99.90;;;;;;6159220;23;20025;-84
2022/04/14 05:39:09;;;;;;;7.90;4.75;;;8.20;99.90;;;;;;6186031;23;20320;-84
2022/04/14 05:41:35;;;;;;;8.68;4.75;;;9.40;99.90;;;;;;6186207;23;20032;-84
2022/04/14 05:44:00;;;;;;;7.53;4.43;;;8.20;99.90;;;;;;6159844;23;20024;-84
2022/04/14 05:46:26;;;;;;;10.98;6.03;;;8.30;99.90;;;;;;6185574;23;20032;-84
2022/04/14 05:48:52;;;;;;;10.27;5.53;;;8.70;99.90;;;;;;6186046;23;20024;-84
2022/04/14 05:51:20;;;;;;;7.65;4.45;;;8.60;99.90;;;;;;6185921;23;20021;-83
2022/04/14 05:53:49;;;;;;;11.00;5.47;;;8.40;99.90;;;;;;6185570;23;20036;-83
2022/04/14 05:56:16;;;;;;;7.30;4.50;;;9.70;99.90;;;;;;6185938;23;20024;-84
2022/04/14 05:58:43;;;;;;;10.48;5.38;;;9.20;99.90;;;;;;6185882;23;20073;-83
2022/04/14 06:01:09;;;;;;;7.45;4.80;;;8.60;99.90;;;;;;6185275;23;20056;-83
2022/04/14 06:03:34;;;;;;;13.95;7.35;;;9.00;99.90;;;;;;6185872;23;20075;-84
2022/04/14 06:06:00;;;;;;;10.30;6.72;;;9.60;99.90;;;;;;6159659;23;20021;-83
2022/04/14 06:08:26;;;;;;;12.00;5.82;;;9.60;99.90;;;;;;6159134;23;20025;-83
2022/04/14 06:10:51;;;;;;;9.45;5.38;;;8.80;99.90;;;;;;6159071;23;20025;-84
2022/04/14 06:13:17;;;;;;;9.35;5.32;;;9.80;99.90;;;;;;6185917;23;20379;-84
2022/04/14 06:15:43;;;;;;;11.10;5.90;;;9.10;99.90;;;;;;6185668;23;20036;-84
2022/04/14 06:18:09;;;;;;;11.77;6.00;;;9.60;99.90;;;;;;6184522;23;20084;-84
2022/04/14 06:20:34;;;;;;;18.92;10.20;;;9.20;99.90;;;;;;6185728;23;20076;-84
2022/04/14 06:23:00;;;;;;;14.00;6.35;;;9.30;99.90;;;;;;6158242;23;20021;-84
2022/04/14 06:25:26;;;;;;;14.50;8.68;;;10.30;99.90;;;;;;6185154;23;20056;-86
2022/04/14 06:27:52;;;;;;;17.25;9.45;;;9.50;99.90;;;;;;6185494;23;20021;-85
2022/04/14 06:30:19;;;;;;;10.82;7.03;;;9.60;99.90;;;;;;6158913;23;20474;-86
2022/04/14 06:32:59;;;;;;;9.80;6.00;;;10.10;99.90;;;;;;6158743;23;20059;-84
2022/04/14 06:35:25;;;;;;;16.17;8.55;;;9.90;99.90;;;;;;6159410;23;20147;-83
2022/04/14 06:37:51;;;;;;;12.23;7.25;;;9.90;99.90;;;;;;6185486;23;20032;-85
2022/04/14 06:40:18;;;;;;;14.98;6.90;;;10.70;99.90;;;;;;6185027;23;20027;-85
2022/04/14 06:42:43;;;;;;;18.48;9.60;;;10.10;99.90;;;;;;6158827;23;20028;-86
2022/04/14 06:45:09;;;;;;;10.82;7.25;;;10.50;99.90;;;;;;6134124;23;20028;-85
2022/04/14 06:47:35;;;;;;;10.82;6.13;;;10.40;99.90;;;;;;6185400;23;20057;-84
2022/04/14 06:50:01;;;;;;;13.95;7.90;;;10.50;99.90;;;;;;6158665;23;20447;-84
2022/04/14 06:52:26;;;;;;;12.27;7.90;;;11.20;99.90;;;;;;6178966;23;20324;-84
2022/04/14 06:54:52;;;;;;;14.10;6.47;;;10.80;99.90;;;;;;6158685;23;20020;-84
2022/04/14 06:57:19;;;;;;;13.95;8.10;;;10.90;99.90;;;;;;6158626;23;20099;-84
2022/04/14 06:59:44;;;;;;;10.18;6.70;;;11.00;99.90;;;;;;6184833;23;20079;-84
2022/04/14 07:02:10;;;;;;;11.15;6.72;;;11.20;99.90;;;;;;6159789;23;20021;-85
2022/04/14 07:04:36;;;;;;;12.80;7.13;;;11.40;99.90;;;;;;6185515;23;20091;-87
2022/04/14 07:07:02;;;;;;;9.90;6.05;;;11.40;99.90;;;;;;6158214;23;20105;-84
2022/04/14 07:09:33;;;;;;;10.55;5.57;;;11.50;99.90;;;;;;6184862;23;20389;-86
2022/04/14 07:12:01;;;;;;;10.35;5.38;;;11.70;99.90;;;;;;6158447;23;20025;-86
2022/04/14 07:14:28;;;;;;;15.25;7.85;;;11.80;99.90;;;;;;6158423;23;20017;-86
2022/04/14 07:16:54;;;;;;;18.80;10.23;;;12.00;99.90;;;;;;6158797;23;20032;-86
2022/04/14 07:19:21;;;;;;;12.30;6.97;;;12.50;99.90;;;;;;6158095;23;20028;-84
2022/04/14 07:21:46;;;;;;;16.27;9.45;;;12.30;99.90;;;;;;6158395;23;20032;-85
2022/04/14 07:24:13;;;;;;;12.13;7.05;;;12.50;99.90;;;;;;6185387;23;20021;-85
2022/04/14 07:26:39;;;;;;;13.13;7.18;;;12.50;99.90;;;;;;6185097;23;20028;-85
2022/04/14 07:29:04;;;;;;;13.23;6.40;;;12.60;99.90;;;;;;6184850;23;20017;-86
2022/04/14 07:31:35;;;;;;;11.52;7.38;;;12.70;99.90;;;;;;6158950;23;20033;-86
2022/04/14 07:34:05;;;;;;;9.52;4.90;;;12.90;99.90;;;;;;6158157;23;20431;-86
2022/04/14 07:36:31;;;;;;;14.00;7.10;;;13.10;99.90;;;;;;6178448;23;20021;-84
2022/04/14 07:38:57;;;;;;;8.43;4.68;;;13.20;99.90;;;;;;6184983;23;20028;-85
2022/04/14 07:41:22;;;;;;;19.08;10.43;;;13.30;99.90;;;;;;6158148;23;20075;-84
2022/04/14 07:43:48;;;;;;;17.45;9.93;;;13.50;99.90;;;;;;6184931;23;20029;-84
2022/04/14 07:46:14;;;;;;;14.05;7.68;;;13.60;99.90;;;;;;6184482;23;20041;-84
2022/04/14 07:48:40;;;;;;;17.77;8.95;;;13.70;99.90;;;;;;6183880;23;20017;-84
2022/04/14 07:51:07;;;;;;;12.52;7.03;;;13.80;99.90;;;;;;6183038;23;20121;-84
2022/04/14 07:53:32;;;;;;;13.85;7.30;;;14.00;99.90;;;;;;6158372;23;20332;-86
2022/04/14 07:55:58;;;;;;;13.30;8.15;;;14.10;99.90;;;;;;6158292;23;20083;-85
2022/04/14 07:58:24;;;;;;;17.00;8.27;;;14.20;99.90;;;;;;6185062;23;20025;-85
2022/04/14 08:00:50;;;;;;;11.82;6.25;;;14.30;99.90;;;;;;6158138;23;20075;-87
2022/04/14 08:03:16;;;;;;;12.00;7.32;;;14.50;99.90;;;;;;6158088;23;20021;-87
2022/04/14 08:05:44;;;;;;;18.48;10.18;;;14.50;99.90;;;;;;6158102;23;20032;-86
2022/04/14 08:08:18;;;;;;;11.60;6.47;;;14.70;99.90;;;;;;6157975;23;20051;-86
2022/04/14 08:10:46;;;;;;;10.10;6.70;;;14.80;99.90;;;;;;6158191;23;20033;-88
2022/04/14 08:13:12;;;;;;;12.80;6.55;;;15.00;99.90;;;;;;6158326;23;20014;-91
2022/04/14 08:15:41;;;;;;;9.95;6.80;;;14.90;99.90;;;;;;6158576;23;20535;-89
2022/04/14 08:18:08;;;;;;;12.40;7.20;;;15.30;99.90;;;;;;6155828;23;20029;-85
2022/04/14 08:20:35;;;;;;;14.35;9.30;;;15.30;99.90;;;;;;6184437;23;20671;-86
2022/04/14 08:23:02;;;;;;;12.10;7.15;;;15.50;99.90;;;;;;6158556;23;20443;-86
2022/04/14 08:25:29;;;;;;;11.98;7.43;;;15.60;99.90;;;;;;6158010;23;20183;-86
2022/04/14 08:27:58;;;;;;;13.35;8.00;;;15.70;99.90;;;;;;6158121;23;20032;-85
2022/04/14 08:30:25;;;;;;;15.35;8.40;;;15.90;99.90;;;;;;6157524;23;20367;-86
2022/04/14 08:32:52;;;;;;;9.45;6.00;;;16.10;99.90;;;;;;6184583;23;20051;-85
2022/04/14 08:35:20;;;;;;;17.83;8.13;;;16.10;99.90;;;;;;6185165;23;20438;-86
2022/04/14 08:37:47;;;;;;;10.70;6.75;;;16.10;99.90;;;;;;6158747;23;20040;-84
2022/04/14 08:40:14;;;;;;;13.50;7.90;;;16.20;99.90;;;;;;6184549;23;20080;-86
2022/04/14 08:42:52;;;;;;;13.77;7.22;;;16.40;99.90;;;;;;6184995;23;20020;-86
2022/04/14 08:45:21;;;;;;;16.45;7.97;;;16.40;99.90;;;;;;6158307;23;20020;-86
2022/04/14 08:47:49;;;;;;;12.30;7.15;;;16.30;99.90;;;;;;6159322;23;20463;-85
2022/04/14 08:50:15;;;;;;;12.73;7.07;;;16.70;99.90;;;;;;6186441;23;20079;-86
2022/04/14 08:52:42;;;;;;;14.73;7.63;;;16.90;99.90;;;;;;6160506;23;20017;-84
2022/04/14 08:55:11;;;;;;;10.55;5.70;;;17.00;99.90;;;;;;6184353;23;20063;-86
2022/04/14 08:57:38;;;;;;;9.07;5.68;;;17.10;99.90;;;;;;6159966;23;20440;-85
2022/04/14 09:00:07;;;;;;;10.48;7.13;;;17.20;99.90;;;;;;6185714;23;20116;-86
2022/04/14 09:02:34;;;;;;;13.65;6.28;;;17.40;99.90;;;;;;6184337;23;20341;-86
2022/04/14 09:05:01;;;;;;;16.45;6.90;;;17.50;99.90;;;;;;6186244;23;20028;-86
2022/04/14 09:07:27;;;;;;;10.18;6.70;;;17.60;99.90;;;;;;6160098;23;20108;-86
2022/04/14 09:09:53;;;;;;;8.52;5.25;;;17.60;99.90;;;;;;6186544;23;20397;-85
2022/04/14 09:12:19;;;;;;;7.00;4.35;;;17.60;99.90;;;;;;6186123;23;20464;-88
2022/04/14 09:14:45;;;;;;;13.65;5.85;;;17.70;99.90;;;;;;6186416;23;20021;-88
2022/04/14 09:17:12;;;;;;;8.43;5.75;;;17.90;99.90;;;;;;6186524;23;20021;-86
2022/04/14 09:19:44;;;;;;;10.18;5.13;;;18.40;99.90;;;;;;6186122;23;20056;-88
2022/04/14 09:22:14;;;;;;;9.77;5.20;;;18.10;99.90;;;;;;6186465;23;20056;-88
2022/04/14 09:24:53;;;;;;;8.60;4.63;;;18.20;99.90;;;;;;6160022;23;20052;-88
2022/04/14 09:27:41;;;;;;;7.53;3.85;;;18.30;99.90;;;;;;6186333;23;20028;-87
2022/04/14 09:30:10;;;;;;;8.43;5.47;;;18.30;99.90;;;;;;6159262;23;20025;-88
2022/04/14 09:32:37;;;;;;;7.85;4.28;;;18.50;99.90;;;;;;6134849;23;20351;-86
2022/04/14 09:35:04;;;;;;;7.47;3.08;;;18.40;99.90;;;;;;6186202;23;20101;-88
2022/04/14 09:37:30;;;;;;;6.88;3.90;;;18.50;99.90;;;;;;6159868;23;20514;-86
2022/04/14 09:40:08;;;;;;;8.70;4.00;;;18.60;99.90;;;;;;6184302;23;20132;-86
2022/04/14 09:42:36;;;;;;;6.03;3.75;;;18.70;99.90;;;;;;6185602;23;20107;-87
2022/04/14 09:45:28;;;;;;;6.40;3.63;;;18.70;99.90;;;;;;6159591;23;20482;-86
2022/04/14 09:48:18;;;;;;;8.35;4.00;;;18.70;99.90;;;;;;6159511;23;20025;-86
2022/04/14 09:50:48;;;;;;;6.35;4.03;;;18.90;99.90;;;;;;6158938;23;20029;-88
2022/04/14 09:53:29;;;;;;;10.73;4.78;;;18.90;99.90;;;;;;6186067;23;20024;-89
2022/04/14 09:55:57;;;;;;;9.02;5.65;;;18.80;99.90;;;;;;6134087;23;20125;-89
2022/04/14 09:58:29;;;;;;;10.23;5.63;;;19.10;99.90;;;;;;6185235;23;20343;-89
2022/04/14 10:05:00;;;;;;;5.93;3.95;;;19.30;99.90;;;;;;6183773;23;20083;-85
2022/04/14 10:07:26;;;;;;;8.68;3.70;;;19.10;99.90;;;;;;6185866;23;20375;-85
2022/04/14 10:09:51;;;;;;;5.35;3.10;;;19.10;99.90;;;;;;6185987;23;20497;-85
2022/04/14 10:12:23;;;;;;;4.93;2.85;;;19.30;99.90;;;;;;6159542;23;20096;-87
2022/04/14 10:15:09;;;;;;;7.32;3.35;;;19.40;99.90;;;;;;6185924;23;20071;-86
2022/04/14 10:17:38;;;;;;;5.80;2.67;;;19.70;99.90;;;;;;6185811;23;20398;-88
2022/04/14 10:20:09;;;;;;;6.53;3.13;;;19.70;99.90;;;;;;6159628;23;20336;-91
2022/04/14 10:22:37;;;;;;;5.25;2.97;;;19.60;99.90;;;;;;6185609;23;20370;-88
2022/04/14 10:25:07;;;;;;;9.38;4.68;;;19.60;99.90;;;;;;6159432;23;20108;-88
2022/04/14 10:27:36;;;;;;;7.03;3.53;;;20.00;99.90;;;;;;6185735;23;20084;-89
2022/04/14 10:30:03;;;;;;;6.65;4.05;;;19.80;99.90;;;;;;6158876;23;20519;-89
2022/04/14 10:32:30;;;;;;;7.80;3.70;;;20.10;99.90;;;;;;6135101;23;20029;-86
2022/04/14 10:34:57;;;;;;;7.78;3.75;;;20.40;99.90;;;;;;6185659;23;20027;-88
2022/04/14 10:37:48;;;;;;;5.82;3.35;;;20.60;99.90;;;;;;6158432;23;20111;-87
2022/04/14 10:40:14;;;;;;;13.95;3.85;;;19.90;99.90;;;;;;6184091;23;20033;-88
2022/04/14 10:42:48;;;;;;;5.18;2.85;;;19.90;99.90;;;;;;6186237;23;20092;-88
2022/04/14 10:45:21;;;;;;;6.18;2.80;;;19.70;99.90;;;;;;6158833;23;20029;-88
2022/04/14 10:47:49;;;;;;;7.78;4.55;;;19.70;99.90;;;;;;6159270;23;20324;-86
2022/04/14 10:50:33;;;;;;;10.52;5.53;;;19.50;99.90;;;;;;6159033;23;20021;-87
2022/04/14 10:53:12;;;;;;;11.95;5.78;;;19.30;99.90;;;;;;6185948;23;20028;-87
2022/04/14 10:55:41;;;;;;;6.88;3.90;;;19.30;99.90;;;;;;6159550;23;20021;-87
2022/04/14 10:58:27;;;;;;;5.45;3.10;;;19.60;99.90;;;;;;6159036;23;20139;-88
2022/04/14 11:00:54;;;;;;;7.20;2.97;;;19.60;99.90;;;;;;6134137;23;20146;-89
2022/04/14 11:03:46;;;;;;;7.90;3.75;;;19.70;99.90;;;;;;6134829;23;20083;-87
2022/04/14 11:06:41;;;;;;;8.85;3.33;;;19.90;99.90;;;;;;6158935;23;20036;-88
2022/04/14 11:09:08;;;;;;;7.97;2.92;;;19.50;99.90;;;;;;6158834;23;20474;-88
2022/04/14 11:11:59;;;;;;;11.13;3.92;;;19.40;99.90;;;;;;6134526;23;20111;-85
2022/04/14 11:14:25;;;;;;;7.25;3.97;;;19.60;99.90;;;;;;6185583;23;20024;-86
2022/04/14 11:16:53;;;;;;;6.82;2.72;;;19.80;99.90;;;;;;6152613;23;20033;-85
2022/04/14 11:19:19;;;;;;;6.50;3.35;;;19.60;99.90;;;;;;6158786;23;20399;-86
2022/04/14 11:24:40;;;;;;;6.18;3.00;;;19.60;99.90;;;;;;6184377;23;20032;-86
2022/04/14 11:27:21;;;;;;;4.15;2.47;;;19.50;99.90;;;;;;6183585;23;20035;-86
2022/04/14 11:29:53;;;;;;;4.68;2.40;;;19.50;99.90;;;;;;6185360;23;20048;-86
2022/04/14 11:32:38;;;;;;;7.07;3.05;;;19.70;99.90;;;;;;6185526;23;20088;-87
2022/04/14 11:35:16;;;;;;;8.40;3.13;;;19.80;99.90;;;;;;6185596;23;20020;-86
2022/04/14 11:37:46;;;;;;;5.68;2.55;;;19.90;99.90;;;;;;6185274;23;20248;-86
2022/04/14 11:40:16;;;;;;;7.75;2.88;;;19.80;99.90;;;;;;6185704;23;20028;-86
2022/04/14 11:42:49;;;;;;;5.85;2.88;;;19.70;99.90;;;;;;6185503;23;20095;-87
2022/04/14 11:45:23;;;;;;;6.15;3.05;;;19.80;99.90;;;;;;6185032;23;20031;-86
2022/04/14 11:47:52;;;;;;;6.65;2.35;;;19.90;99.90;;;;;;6184753;23;20095;-86
2022/04/14 11:50:32;;;;;;;7.50;2.45;;;19.80;99.90;;;;;;6158882;23;20063;-85
2022/04/14 11:53:00;;;;;;;4.72;2.28;;;20.00;99.90;;;;;;6184903;23;20462;-84
2022/04/14 11:55:43;;;;;;;5.93;2.90;;;19.70;99.90;;;;;;6184905;23;20439;-86
2022/04/14 11:58:11;;;;;;;9.18;3.80;;;19.60;99.90;;;;;;6158582;23;20021;-86
2022/04/14 12:00:45;;;;;;;10.05;3.78;;;19.50;99.90;;;;;;6184876;23;20020;-86
2022/04/14 12:03:12;;;;;;;9.18;3.88;;;19.90;99.90;;;;;;6185353;23;20021;-87
2022/04/14 12:05:40;;;;;;;7.63;3.80;;;19.70;99.90;;;;;;6184665;23;20032;-86
2022/04/14 12:08:10;;;;;;;8.48;3.72;;;19.80;99.90;;;;;;6185148;23;20017;-86
2022/04/14 12:10:36;;;;;;;6.93;3.03;;;19.50;99.90;;;;;;6158284;23;20032;-86
2022/04/14 12:13:07;;;;;;;4.72;2.53;;;19.10;99.90;;;;;;6185188;23;20014;-86
2022/04/14 12:15:33;;;;;;;5.28;2.65;;;19.30;99.90;;;;;;6185159;23;20103;-86
2022/04/14 12:18:09;;;;;;;8.45;3.35;;;19.30;99.90;;;;;;6185243;23;20017;-86
2022/04/14 12:20:45;;;;;;;7.53;3.05;;;19.30;99.90;;;;;;6184757;23;20051;-86
2022/04/14 12:23:11;;;;;;;5.35;3.30;;;19.30;99.90;;;;;;6158619;23;20395;-86
2022/04/14 12:25:38;;;;;;;4.97;3.08;;;18.90;99.90;;;;;;6184556;23;20021;-86
2022/04/14 12:28:05;;;;;;;7.20;3.10;;;18.80;99.90;;;;;;6184838;23;20092;-86
2022/04/14 12:30:31;;;;;;;6.80;3.42;;;18.60;99.90;;;;;;6184605;23;20039;-86
2022/04/14 12:33:05;;;;;;;5.70;2.58;;;18.60;99.90;;;;;;6184836;23;20347;-85
2022/04/14 12:35:38;;;;;;;11.90;3.25;;;18.60;99.90;;;;;;6184691;23;20151;-87
2022/04/14 12:38:19;;;;;;;7.60;2.38;;;18.20;99.90;;;;;;6184786;23;20021;-86
2022/04/14 12:40:54;;;;;;;6.35;3.05;;;18.00;99.90;;;;;;6184619;23;20443;-87
2022/04/14 12:43:21;;;;;;;11.80;4.43;;;17.60;99.90;;;;;;6185221;23;20025;-86
2022/04/14 12:45:47;;;;;;;10.18;4.28;;;17.70;99.90;;;;;;6184580;23;20474;-86
2022/04/14 12:48:27;;;;;;;12.10;4.25;;;17.60;99.90;;;;;;6184838;23;20029;-86
2022/04/14 12:50:54;;;;;;;7.53;3.70;;;17.60;99.90;;;;;;6184712;23;20029;-85
2022/04/14 12:53:25;;;;;;;8.90;4.10;;;17.10;99.90;;;;;;6184907;23;20064;-87
2022/04/14 12:55:51;;;;;;;8.88;4.03;;;17.20;99.90;;;;;;6184998;23;20029;-84
2022/04/14 12:58:16;;;;;;;11.70;4.18;;;17.30;99.90;;;;;;6184903;23;20021;-85